sensor_id;sensor_type;location;lat;lon;timestamp;pressure;altitude;pressure_sealevel;temperature;humidity
36304;BME280;22335;49.800;8.596;2023-04-08T00:02:02;100878.22;;;15.02;52.03
36304;BME280;22335;49.800;8.596;2023-04-08T00:08:45;100880.66;;;15.04;52.01
36304;BME280;22335;49.800;8.596;2023-04-08T00:15:29;100888.72;;;15.14;51.90
36304;BME280;22335;49.800;8.596;2023-04-08T00:22:14;100890.06;;;15.16;51.98
36304;BME280;22335;49.800;8.596;2023-04-08T00:28:58;100892.19;;;15.06;52.01
36304;BME280;22335;49.800;8.596;2023-04-08T00:35:44;100891.59;;;15.09;52.31
36304;BME280;22335;49.800;8.596;2023-04-08T00:42:29;100896.47;;;14.98;52.19
36304;BME280;22335;49.800;8.596;2023-04-08T00:49:13;100893.09;;;15.01;52.22
36304;BME280;22335;49.800;8.596;2023-04-08T00:55:56;100858.78;;;14.80;52.20
36304;BME280;22335;49.800;8.596;2023-04-08T01:09:44;100896.91;;;14.72;52.48
36304;BME280;22335;49.800;8.596;2023-04-08T01:16:30;100905.81;;;14.83;52.61
36304;BME280;22335;49.800;8.596;2023-04-08T01:23:18;100899.28;;;14.79;52.54
36304;BME280;22335;49.800;8.596;2023-04-08T01:30:07;100885.31;;;14.75;52.57
36304;BME280;22335;49.800;8.596;2023-04-08T01:36:52;100898.06;;;14.71;52.80
36304;BME280;22335;49.800;8.596;2023-04-08T01:43:39;100893.44;;;14.67;52.86
36304;BME280;22335;49.800;8.596;2023-04-08T01:50:26;100897.09;;;14.62;52.66
36304;BME280;22335;49.800;8.596;2023-04-08T01:57:13;100891.28;;;14.64;52.53
36304;BME280;22335;49.800;8.596;2023-04-08T02:04:02;100899.97;;;14.71;52.62
36304;BME280;22335;49.800;8.596;2023-04-08T02:10:47;100905.69;;;14.74;52.58
36304;BME280;22335;49.800;8.596;2023-04-08T02:17:34;100902.72;;;14.71;52.97
36304;BME280;22335;49.800;8.596;2023-04-08T02:24:23;100888.66;;;14.72;52.66
36304;BME280;22335;49.800;8.596;2023-04-08T02:31:11;100899.53;;;14.96;52.18
36304;BME280;22335;49.800;8.596;2023-04-08T02:37:58;100911.63;;;14.82;52.61
36304;BME280;22335;49.800;8.596;2023-04-08T02:44:42;100909.28;;;14.75;52.79
36304;BME280;22335;49.800;8.596;2023-04-08T03:06:29;100920.56;;;14.73;52.68
36304;BME280;22335;49.800;8.596;2023-04-08T03:13:13;100918.34;;;14.75;52.48
36304;BME280;22335;49.800;8.596;2023-04-08T03:19:56;100916.59;;;14.66;52.75
36304;BME280;22335;49.800;8.596;2023-04-08T03:26:41;100916.75;;;14.56;52.36
36304;BME280;22335;49.800;8.596;2023-04-08T03:33:24;100926.72;;;14.51;52.63
36304;BME280;22335;49.800;8.596;2023-04-08T03:40:09;100924.53;;;14.48;52.33
36304;BME280;22335;49.800;8.596;2023-04-08T03:46:55;100900.75;;;14.20;52.29
36304;BME280;22335;49.800;8.596;2023-04-08T03:53:38;100937.19;;;14.30;52.77
36304;BME280;22335;49.800;8.596;2023-04-08T04:00:22;100936.38;;;14.11;52.72
36304;BME280;22335;49.800;8.596;2023-04-08T04:07:06;100942.31;;;13.99;52.47
36304;BME280;22335;49.800;8.596;2023-04-08T04:13:50;100950.31;;;13.96;52.67
36304;BME280;22335;49.800;8.596;2023-04-08T04:20:33;100950.63;;;13.94;52.59
36304;BME280;22335;49.800;8.596;2023-04-08T04:27:19;100951.06;;;13.82;52.16
36304;BME280;22335;49.800;8.596;2023-04-08T04:34:03;100955.25;;;13.75;52.09
36304;BME280;22335;49.800;8.596;2023-04-08T04:40:46;100967.72;;;13.67;51.93
36304;BME280;22335;49.800;8.596;2023-04-08T04:47:31;100923.13;;;13.22;52.33
36304;BME280;22335;49.800;8.596;2023-04-08T04:54:14;100972.16;;;13.39;52.50
36304;BME280;22335;49.800;8.596;2023-04-08T05:00:59;100970.88;;;13.31;52.03
36304;BME280;22335;49.800;8.596;2023-04-08T05:07:43;100984.59;;;13.31;52.07
36304;BME280;22335;49.800;8.596;2023-04-08T05:14:28;100985.72;;;13.30;52.22
36304;BME280;22335;49.800;8.596;2023-04-08T05:21:11;100992.25;;;13.34;51.62
36304;BME280;22335;49.800;8.596;2023-04-08T05:27:56;100994.97;;;13.40;51.38
36304;BME280;22335;49.800;8.596;2023-04-08T05:34:39;100994.69;;;13.41;51.20
36304;BME280;22335;49.800;8.596;2023-04-08T05:41:23;101009.53;;;13.40;51.14
36304;BME280;22335;49.800;8.596;2023-04-08T05:48:08;101016.94;;;13.40;50.92
36304;BME280;22335;49.800;8.596;2023-04-08T05:54:51;101026.00;;;13.40;51.23
36304;BME280;22335;49.800;8.596;2023-04-08T06:01:35;101034.38;;;13.25;51.03
36304;BME280;22335;49.800;8.596;2023-04-08T06:08:19;101042.44;;;13.11;51.05
36304;BME280;22335;49.800;8.596;2023-04-08T06:15:05;101038.50;;;12.88;51.26
36304;BME280;22335;49.800;8.596;2023-04-08T06:21:49;101051.84;;;12.60;51.72
36304;BME280;22335;49.800;8.596;2023-04-08T06:28:34;101053.63;;;12.41;51.98
36304;BME280;22335;49.800;8.596;2023-04-08T06:35:17;101058.88;;;12.32;52.30
36304;BME280;22335;49.800;8.596;2023-04-08T06:42:02;101054.53;;;12.21;52.54
36304;BME280;22335;49.800;8.596;2023-04-08T06:48:59;101069.06;;;12.27;52.18
36304;BME280;22335;49.800;8.596;2023-04-08T06:55:44;101069.03;;;12.32;52.62
36304;BME280;22335;49.800;8.596;2023-04-08T07:02:28;101072.00;;;12.35;52.25
36304;BME280;22335;49.800;8.596;2023-04-08T07:09:13;101073.94;;;12.40;52.30
36304;BME280;22335;49.800;8.596;2023-04-08T07:15:56;101089.53;;;12.44;52.14
36304;BME280;22335;49.800;8.596;2023-04-08T07:22:40;101088.13;;;12.52;52.03
36304;BME280;22335;49.800;8.596;2023-04-08T07:29:25;101094.44;;;12.53;51.70
36304;BME280;22335;49.800;8.596;2023-04-08T07:36:08;101101.28;;;12.55;51.33
36304;BME280;22335;49.800;8.596;2023-04-08T07:42:52;101108.09;;;12.68;50.80
36304;BME280;22335;49.800;8.596;2023-04-08T07:49:37;101120.38;;;12.76;50.82
36304;BME280;22335;49.800;8.596;2023-04-08T07:56:21;101111.84;;;12.82;50.61
36304;BME280;22335;49.800;8.596;2023-04-08T08:03:05;101124.63;;;13.02;50.31
36304;BME280;22335;49.800;8.596;2023-04-08T08:09:49;101087.06;;;12.92;49.76
36304;BME280;22335;49.800;8.596;2023-04-08T08:16:33;101119.00;;;13.23;48.94
36304;BME280;22335;49.800;8.596;2023-04-08T08:23:16;101135.47;;;13.28;48.78
36304;BME280;22335;49.800;8.596;2023-04-08T08:30:01;101130.75;;;13.33;48.28
36304;BME280;22335;49.800;8.596;2023-04-08T08:36:45;101129.06;;;13.37;47.88
36304;BME280;22335;49.800;8.596;2023-04-08T08:43:29;101143.66;;;13.38;47.92
36304;BME280;22335;49.800;8.596;2023-04-08T08:50:15;101148.06;;;13.34;47.70
36304;BME280;22335;49.800;8.596;2023-04-08T08:56:58;101154.53;;;13.48;47.70
36304;BME280;22335;49.800;8.596;2023-04-08T09:03:42;101154.22;;;13.55;47.35
36304;BME280;22335;49.800;8.596;2023-04-08T09:10:28;101143.22;;;13.55;47.45
36304;BME280;22335;49.800;8.596;2023-04-08T09:17:11;101160.53;;;13.55;47.09
36304;BME280;22335;49.800;8.596;2023-04-08T09:23:55;101140.44;;;13.60;47.41
36304;BME280;22335;49.800;8.596;2023-04-08T09:30:39;101172.06;;;13.87;46.89
36304;BME280;22335;49.800;8.596;2023-04-08T09:37:23;101180.44;;;13.76;46.85
36304;BME280;22335;49.800;8.596;2023-04-08T09:44:09;101184.31;;;13.70;45.93
36304;BME280;22335;49.800;8.596;2023-04-08T09:50:56;101179.63;;;13.71;45.47
36304;BME280;22335;49.800;8.596;2023-04-08T09:57:42;101173.19;;;13.56;45.65
36304;BME280;22335;49.800;8.596;2023-04-08T10:04:29;101174.84;;;13.52;45.07
36304;BME280;22335;49.800;8.596;2023-04-08T10:11:15;101172.09;;;13.52;44.54
36304;BME280;22335;49.800;8.596;2023-04-08T10:18:30;101174.56;;;13.54;44.82
36304;BME280;22335;49.800;8.596;2023-04-08T10:25:28;101124.44;;;13.33;45.26
36304;BME280;22335;49.800;8.596;2023-04-08T10:32:28;101174.72;;;13.68;44.27
36304;BME280;22335;49.800;8.596;2023-04-08T10:39:13;101179.31;;;13.77;43.96
36304;BME280;22335;49.800;8.596;2023-04-08T10:45:56;101179.75;;;13.90;43.30
36304;BME280;22335;49.800;8.596;2023-04-08T10:52:46;101180.19;;;14.02;42.17
36304;BME280;22335;49.800;8.596;2023-04-08T10:59:30;101173.38;;;14.23;42.52
36304;BME280;22335;49.800;8.596;2023-04-08T11:06:14;101124.41;;;14.20;42.01
36304;BME280;22335;49.800;8.596;2023-04-08T11:12:59;101160.59;;;14.62;41.86
36304;BME280;22335;49.800;8.596;2023-04-08T11:19:43;101155.97;;;14.76;41.63
36304;BME280;22335;49.800;8.596;2023-04-08T11:26:28;101160.31;;;14.82;41.18
36304;BME280;22335;49.800;8.596;2023-04-08T11:33:13;101148.03;;;14.74;42.06
36304;BME280;22335;49.800;8.596;2023-04-08T11:39:57;101147.78;;;14.71;42.87
36304;BME280;22335;49.800;8.596;2023-04-08T11:46:51;101142.41;;;14.61;43.37
36304;BME280;22335;49.800;8.596;2023-04-08T11:53:38;101142.25;;;14.71;43.76
36304;BME280;22335;49.800;8.596;2023-04-08T12:00:28;101141.84;;;14.83;43.35
36304;BME280;22335;49.800;8.596;2023-04-08T12:07:13;101149.88;;;14.98;43.64
36304;BME280;22335;49.800;8.596;2023-04-08T12:13:58;101141.13;;;15.15;43.85
36304;BME280;22335;49.800;8.596;2023-04-08T12:20:43;101137.63;;;15.42;43.97
36304;BME280;22335;49.800;8.596;2023-04-08T12:27:26;101135.00;;;15.70;43.55
36304;BME280;22335;49.800;8.596;2023-04-08T12:34:11;101124.81;;;15.84;43.33
36304;BME280;22335;49.800;8.596;2023-04-08T12:40:54;101125.03;;;15.87;43.09
36304;BME280;22335;49.800;8.596;2023-04-08T12:47:38;101102.69;;;15.89;43.41
36304;BME280;22335;49.800;8.596;2023-04-08T12:54:22;101102.06;;;16.06;43.28
36304;BME280;22335;49.800;8.596;2023-04-08T13:01:06;101094.09;;;16.18;43.33
36304;BME280;22335;49.800;8.596;2023-04-08T13:07:50;101101.56;;;16.18;43.34
36304;BME280;22335;49.800;8.596;2023-04-08T13:14:34;101111.56;;;16.27;43.27
36304;BME280;22335;49.800;8.596;2023-04-08T13:21:18;101122.00;;;16.30;43.35
36304;BME280;22335;49.800;8.596;2023-04-08T13:28:02;101110.56;;;16.23;43.43
36304;BME280;22335;49.800;8.596;2023-04-08T13:34:47;101108.31;;;16.39;43.50
36304;BME280;22335;49.800;8.596;2023-04-08T13:41:31;101104.00;;;16.47;43.53
36304;BME280;22335;49.800;8.596;2023-04-08T13:48:15;101104.41;;;16.54;42.62
36304;BME280;22335;49.800;8.596;2023-04-08T13:55:00;101106.22;;;16.72;42.64
36304;BME280;22335;49.800;8.596;2023-04-08T14:01:43;101091.44;;;16.91;42.62
36304;BME280;22335;49.800;8.596;2023-04-08T14:08:27;101096.88;;;16.96;42.53
36304;BME280;22335;49.800;8.596;2023-04-08T14:15:11;101097.94;;;17.09;42.58
36304;BME280;22335;49.800;8.596;2023-04-08T14:21:55;101100.00;;;17.03;42.57
36304;BME280;22335;49.800;8.596;2023-04-08T14:28:38;101091.88;;;16.84;43.03
36304;BME280;22335;49.800;8.596;2023-04-08T14:35:23;101099.47;;;16.65;43.60
36304;BME280;22335;49.800;8.596;2023-04-08T14:42:06;101067.84;;;16.21;44.02
36304;BME280;22335;49.800;8.596;2023-04-08T14:48:50;101111.66;;;16.50;44.20
36304;BME280;22335;49.800;8.596;2023-04-08T14:55:34;101111.06;;;16.39;44.30
36304;BME280;22335;49.800;8.596;2023-04-08T15:02:18;101115.97;;;16.28;44.85
36304;BME280;22335;49.800;8.596;2023-04-08T15:09:02;101113.41;;;16.32;44.89
36304;BME280;22335;49.800;8.596;2023-04-08T15:15:48;101125.69;;;16.40;45.01
36304;BME280;22335;49.800;8.596;2023-04-08T15:22:32;101129.75;;;16.28;45.12
36304;BME280;22335;49.800;8.596;2023-04-08T15:29:15;101137.56;;;16.26;45.19
36304;BME280;22335;49.800;8.596;2023-04-08T15:36:00;101137.34;;;16.36;45.27
36304;BME280;22335;49.800;8.596;2023-04-08T15:42:44;101137.03;;;16.24;45.14
36304;BME280;22335;49.800;8.596;2023-04-08T15:49:27;101141.22;;;16.22;45.43
36304;BME280;22335;49.800;8.596;2023-04-08T15:56:13;101141.41;;;16.25;45.46
36304;BME280;22335;49.800;8.596;2023-04-08T16:02:58;101138.38;;;16.27;45.65
36304;BME280;22335;49.800;8.596;2023-04-08T16:09:42;101145.91;;;16.35;45.61
36304;BME280;22335;49.800;8.596;2023-04-08T16:16:27;101150.81;;;16.38;45.59
36304;BME280;22335;49.800;8.596;2023-04-08T16:23:12;101144.06;;;16.44;45.57
36304;BME280;22335;49.800;8.596;2023-04-08T16:29:56;101150.03;;;16.51;45.28
36304;BME280;22335;49.800;8.596;2023-04-08T16:36:40;101158.59;;;16.50;45.35
36304;BME280;22335;49.800;8.596;2023-04-08T16:43:24;101163.84;;;16.51;45.42
36304;BME280;22335;49.800;8.596;2023-04-08T16:50:08;101164.13;;;16.50;45.48
36304;BME280;22335;49.800;8.596;2023-04-08T16:56:53;101162.69;;;16.52;45.28
36304;BME280;22335;49.800;8.596;2023-04-08T17:03:37;101177.63;;;16.51;45.28
36304;BME280;22335;49.800;8.596;2023-04-08T17:10:21;101173.53;;;16.49;45.41
36304;BME280;22335;49.800;8.596;2023-04-08T17:17:06;101173.63;;;16.44;45.58
36304;BME280;22335;49.800;8.596;2023-04-08T17:23:50;101188.25;;;16.44;45.71
36304;BME280;22335;49.800;8.596;2023-04-08T17:30:33;101196.03;;;16.56;45.60
36304;BME280;22335;49.800;8.596;2023-04-08T17:37:19;101198.63;;;16.66;45.44
36304;BME280;22335;49.800;8.596;2023-04-08T17:44:02;101201.69;;;16.78;45.32
36304;BME280;22335;49.800;8.596;2023-04-08T17:50:46;101201.38;;;16.80;45.53
36304;BME280;22335;49.800;8.596;2023-04-08T17:57:31;101212.94;;;16.82;45.55
36304;BME280;22335;49.800;8.596;2023-04-08T18:04:14;101220.41;;;16.81;45.55
36304;BME280;22335;49.800;8.596;2023-04-08T18:10:57;101221.53;;;16.80;45.47
36304;BME280;22335;49.800;8.596;2023-04-08T18:17:42;101225.72;;;16.78;45.38
36304;BME280;22335;49.800;8.596;2023-04-08T18:24:26;101244.97;;;16.69;45.29
36304;BME280;22335;49.800;8.596;2023-04-08T18:31:09;101245.03;;;16.64;45.26
36304;BME280;22335;49.800;8.596;2023-04-08T18:37:54;101232.97;;;16.60;44.98
36304;BME280;22335;49.800;8.596;2023-04-08T18:44:38;101247.09;;;16.58;44.39
36304;BME280;22335;49.800;8.596;2023-04-08T18:51:21;101257.53;;;16.48;43.65
36304;BME280;22335;49.800;8.596;2023-04-08T18:58:06;101250.94;;;16.30;43.07
36304;BME280;22335;49.800;8.596;2023-04-08T19:04:49;101266.81;;;16.05;42.93
36304;BME280;22335;49.800;8.596;2023-04-08T19:11:33;101266.00;;;16.05;42.54
36304;BME280;22335;49.800;8.596;2023-04-08T19:18:18;101263.25;;;16.05;42.39
36304;BME280;22335;49.800;8.596;2023-04-08T19:25:01;101274.72;;;16.12;42.51
36304;BME280;22335;49.800;8.596;2023-04-08T19:31:45;101275.50;;;15.99;42.89
36304;BME280;22335;49.800;8.596;2023-04-08T19:38:29;101280.13;;;15.84;43.02
36304;BME280;22335;49.800;8.596;2023-04-08T19:45:13;101199.78;;;15.15;43.24
36304;BME280;22335;49.800;8.596;2023-04-08T19:51:57;101276.00;;;15.44;43.51
36304;BME280;22335;49.800;8.596;2023-04-08T19:58:43;101293.94;;;15.41;43.81
36304;BME280;22335;49.800;8.596;2023-04-08T20:05:27;101304.97;;;15.41;43.79
36304;BME280;22335;49.800;8.596;2023-04-08T20:12:10;101302.81;;;15.38;44.04
36304;BME280;22335;49.800;8.596;2023-04-08T20:18:55;101305.50;;;15.43;43.65
36304;BME280;22335;49.800;8.596;2023-04-08T20:25:38;101304.00;;;15.51;43.96
36304;BME280;22335;49.800;8.596;2023-04-08T20:32:22;101311.41;;;15.56;43.85
36304;BME280;22335;49.800;8.596;2023-04-08T20:39:09;101313.50;;;15.64;43.77
36304;BME280;22335;49.800;8.596;2023-04-08T20:45:53;101311.44;;;15.75;43.39
36304;BME280;22335;49.800;8.596;2023-04-08T20:52:37;101322.63;;;15.83;43.53
36304;BME280;22335;49.800;8.596;2023-04-08T20:59:21;101316.41;;;15.91;43.25
36304;BME280;22335;49.800;8.596;2023-04-08T21:06:05;101323.81;;;15.96;43.09
36304;BME280;22335;49.800;8.596;2023-04-08T21:12:48;101328.66;;;16.04;43.00
36304;BME280;22335;49.800;8.596;2023-04-08T21:19:33;101322.78;;;15.92;42.93
36304;BME280;22335;49.800;8.596;2023-04-08T21:26:16;101336.50;;;15.78;43.37
36304;BME280;22335;49.800;8.596;2023-04-08T21:32:59;101279.50;;;15.31;43.16
36304;BME280;22335;49.800;8.596;2023-04-08T21:39:44;101342.72;;;15.46;43.83
36304;BME280;22335;49.800;8.596;2023-04-08T21:46:28;101339.63;;;15.48;43.32
36304;BME280;22335;49.800;8.596;2023-04-08T21:53:11;101345.47;;;15.46;43.29
36304;BME280;22335;49.800;8.596;2023-04-08T21:59:56;101327.03;;;15.41;43.63
36304;BME280;22335;49.800;8.596;2023-04-08T22:06:40;101328.75;;;15.37;43.21
36304;BME280;22335;49.800;8.596;2023-04-08T22:13:23;101337.84;;;15.38;43.31
36304;BME280;22335;49.800;8.596;2023-04-08T22:20:10;101335.72;;;15.30;43.16
36304;BME280;22335;49.800;8.596;2023-04-08T22:26:53;101340.16;;;15.07;43.32
36304;BME280;22335;49.800;8.596;2023-04-08T22:33:38;101308.00;;;14.73;44.00
36304;BME280;22335;49.800;8.596;2023-04-08T22:40:23;101331.78;;;14.64;44.39
36304;BME280;22335;49.800;8.596;2023-04-08T22:47:07;101332.47;;;14.45;44.17
36304;BME280;22335;49.800;8.596;2023-04-08T22:53:50;101331.53;;;14.31;44.67
36304;BME280;22335;49.800;8.596;2023-04-08T23:00:35;101330.53;;;14.17;45.04
36304;BME280;22335;49.800;8.596;2023-04-08T23:07:19;101329.81;;;14.06;44.87
36304;BME280;22335;49.800;8.596;2023-04-08T23:14:02;101335.59;;;13.99;45.10
36304;BME280;22335;49.800;8.596;2023-04-08T23:20:50;101330.19;;;13.89;45.75
36304;BME280;22335;49.800;8.596;2023-04-08T23:27:34;101317.59;;;13.78;45.37
36304;BME280;22335;49.800;8.596;2023-04-08T23:34:18;101353.78;;;14.00;45.59
36304;BME280;22335;49.800;8.596;2023-04-08T23:41:03;101341.16;;;13.94;45.41
36304;BME280;22335;49.800;8.596;2023-04-08T23:47:47;101342.81;;;13.90;45.59
36304;BME280;22335;49.800;8.596;2023-04-08T23:54:31;101344.97;;;13.98;45.76
